sensor_id;sensor_type;location;lat;lon;timestamp;P1;durP1;ratioP1;P2;durP2;ratioP2
2724;SDS011;1370;52.596;13.112;2022-10-22T00:01:11;14.83;;;12.10;;
2724;SDS011;1370;52.596;13.112;2022-10-22T00:03:37;17.00;;;12.47;;
2724;SDS011;1370;52.596;13.112;2022-10-22T00:06:02;13.10;;;11.70;;
2724;SDS011;1370;52.596;13.112;2022-10-22T00:08:27;13.33;;;11.70;;
2724;SDS011;1370;52.596;13.112;2022-10-22T00:10:53;15.50;;;12.33;;
2724;SDS011;1370;52.596;13.112;2022-10-22T00:13:19;14.20;;;12.90;;
2724;SDS011;1370;52.596;13.112;2022-10-22T00:15:44;13.47;;;11.70;;
2724;SDS011;1370;52.596;13.112;2022-10-22T00:18:10;12.97;;;11.57;;
2724;SDS011;1370;52.596;13.112;2022-10-22T00:20:35;15.50;;;12.80;;
2724;SDS011;1370;52.596;13.112;2022-10-22T00:23:00;18.13;;;12.23;;
2724;SDS011;1370;52.596;13.112;2022-10-22T00:25:25;18.67;;;14.00;;
2724;SDS011;1370;52.596;13.112;2022-10-22T00:27:51;13.67;;;12.27;;
2724;SDS011;1370;52.596;13.112;2022-10-22T00:30:16;13.77;;;12.40;;
2724;SDS011;1370;52.596;13.112;2022-10-22T00:32:41;15.27;;;12.87;;
2724;SDS011;1370;52.596;13.112;2022-10-22T00:35:07;16.23;;;13.10;;
2724;SDS011;1370;52.596;13.112;2022-10-22T00:37:32;13.17;;;11.83;;
2724;SDS011;1370;52.596;13.112;2022-10-22T00:39:57;14.77;;;11.73;;
2724;SDS011;1370;52.596;13.112;2022-10-22T00:42:23;14.40;;;12.90;;
2724;SDS011;1370;52.596;13.112;2022-10-22T00:44:59;13.90;;;10.70;;
2724;SDS011;1370;52.596;13.112;2022-10-22T00:47:34;13.83;;;11.80;;
2724;SDS011;1370;52.596;13.112;2022-10-22T00:50:03;18.63;;;13.37;;
2724;SDS011;1370;52.596;13.112;2022-10-22T00:52:29;11.50;;;10.30;;
2724;SDS011;1370;52.596;13.112;2022-10-22T00:54:55;15.77;;;10.50;;
2724;SDS011;1370;52.596;13.112;2022-10-22T00:57:21;14.77;;;10.93;;
2724;SDS011;1370;52.596;13.112;2022-10-22T00:59:46;14.10;;;11.30;;
2724;SDS011;1370;52.596;13.112;2022-10-22T01:02:12;11.10;;;9.93;;
2724;SDS011;1370;52.596;13.112;2022-10-22T01:04:37;14.77;;;11.73;;
2724;SDS011;1370;52.596;13.112;2022-10-22T01:07:03;12.30;;;11.00;;
2724;SDS011;1370;52.596;13.112;2022-10-22T01:09:30;13.00;;;11.40;;
2724;SDS011;1370;52.596;13.112;2022-10-22T01:12:02;13.90;;;10.43;;
2724;SDS011;1370;52.596;13.112;2022-10-22T01:17:46;15.03;;;11.43;;
2724;SDS011;1370;52.596;13.112;2022-10-22T01:23:31;14.30;;;12.53;;
2724;SDS011;1370;52.596;13.112;2022-10-22T01:29:00;16.00;;;12.03;;
2724;SDS011;1370;52.596;13.112;2022-10-22T01:31:31;15.97;;;12.50;;
2724;SDS011;1370;52.596;13.112;2022-10-22T01:33:59;13.80;;;11.00;;
2724;SDS011;1370;52.596;13.112;2022-10-22T01:36:26;13.23;;;12.00;;
2724;SDS011;1370;52.596;13.112;2022-10-22T01:38:53;14.70;;;12.10;;
2724;SDS011;1370;52.596;13.112;2022-10-22T01:41:20;11.73;;;10.63;;
2724;SDS011;1370;52.596;13.112;2022-10-22T01:43:45;14.70;;;10.13;;
2724;SDS011;1370;52.596;13.112;2022-10-22T01:46:10;11.57;;;10.60;;
2724;SDS011;1370;52.596;13.112;2022-10-22T01:48:55;13.67;;;12.17;;
2724;SDS011;1370;52.596;13.112;2022-10-22T01:51:27;14.50;;;12.30;;
2724;SDS011;1370;52.596;13.112;2022-10-22T01:53:59;14.10;;;11.40;;
2724;SDS011;1370;52.596;13.112;2022-10-22T02:01:58;13.63;;;12.13;;
2724;SDS011;1370;52.596;13.112;2022-10-22T02:04:38;12.20;;;11.00;;
2724;SDS011;1370;52.596;13.112;2022-10-22T02:07:11;13.03;;;11.77;;
2724;SDS011;1370;52.596;13.112;2022-10-22T02:09:38;14.10;;;10.90;;
2724;SDS011;1370;52.596;13.112;2022-10-22T02:12:05;11.23;;;9.90;;
2724;SDS011;1370;52.596;13.112;2022-10-22T02:14:31;13.60;;;11.50;;
2724;SDS011;1370;52.596;13.112;2022-10-22T02:16:59;13.80;;;12.37;;
2724;SDS011;1370;52.596;13.112;2022-10-22T02:19:45;25.13;;;12.57;;
2724;SDS011;1370;52.596;13.112;2022-10-22T02:22:12;12.20;;;10.00;;
2724;SDS011;1370;52.596;13.112;2022-10-22T02:24:38;14.03;;;11.70;;
2724;SDS011;1370;52.596;13.112;2022-10-22T02:27:18;12.13;;;11.03;;
2724;SDS011;1370;52.596;13.112;2022-10-22T02:30:20;18.47;;;11.30;;
2724;SDS011;1370;52.596;13.112;2022-10-22T02:35:26;11.60;;;10.23;;
2724;SDS011;1370;52.596;13.112;2022-10-22T02:37:52;14.93;;;11.30;;
2724;SDS011;1370;52.596;13.112;2022-10-22T02:40:19;11.70;;;10.13;;
2724;SDS011;1370;52.596;13.112;2022-10-22T02:42:45;10.80;;;9.80;;
2724;SDS011;1370;52.596;13.112;2022-10-22T02:45:12;12.27;;;11.17;;
2724;SDS011;1370;52.596;13.112;2022-10-22T02:47:37;10.47;;;9.50;;
2724;SDS011;1370;52.596;13.112;2022-10-22T02:50:02;16.20;;;11.23;;
2724;SDS011;1370;52.596;13.112;2022-10-22T02:52:28;10.40;;;9.40;;
2724;SDS011;1370;52.596;13.112;2022-10-22T02:54:53;11.23;;;10.13;;
2724;SDS011;1370;52.596;13.112;2022-10-22T02:57:19;11.10;;;10.03;;
2724;SDS011;1370;52.596;13.112;2022-10-22T02:59:44;12.70;;;10.07;;
2724;SDS011;1370;52.596;13.112;2022-10-22T03:02:09;15.73;;;10.83;;
2724;SDS011;1370;52.596;13.112;2022-10-22T03:04:34;11.40;;;10.40;;
2724;SDS011;1370;52.596;13.112;2022-10-22T03:07:00;10.97;;;9.97;;
2724;SDS011;1370;52.596;13.112;2022-10-22T03:09:25;10.53;;;9.53;;
2724;SDS011;1370;52.596;13.112;2022-10-22T03:11:50;11.77;;;10.53;;
2724;SDS011;1370;52.596;13.112;2022-10-22T03:14:16;13.17;;;9.00;;
2724;SDS011;1370;52.596;13.112;2022-10-22T03:16:41;11.93;;;10.57;;
2724;SDS011;1370;52.596;13.112;2022-10-22T03:19:06;14.10;;;11.60;;
2724;SDS011;1370;52.596;13.112;2022-10-22T03:24:16;10.97;;;10.07;;
2724;SDS011;1370;52.596;13.112;2022-10-22T03:26:45;11.60;;;10.50;;
2724;SDS011;1370;52.596;13.112;2022-10-22T03:29:11;15.43;;;11.40;;
2724;SDS011;1370;52.596;13.112;2022-10-22T03:31:39;15.60;;;10.97;;
2724;SDS011;1370;52.596;13.112;2022-10-22T03:34:04;12.87;;;9.80;;
2724;SDS011;1370;52.596;13.112;2022-10-22T03:36:30;12.17;;;10.87;;
2724;SDS011;1370;52.596;13.112;2022-10-22T03:38:55;11.47;;;9.10;;
2724;SDS011;1370;52.596;13.112;2022-10-22T03:41:21;13.27;;;9.57;;
2724;SDS011;1370;52.596;13.112;2022-10-22T03:43:46;10.97;;;10.03;;
2724;SDS011;1370;52.596;13.112;2022-10-22T03:46:15;14.17;;;10.23;;
2724;SDS011;1370;52.596;13.112;2022-10-22T03:48:40;11.70;;;9.73;;
2724;SDS011;1370;52.596;13.112;2022-10-22T03:51:05;17.10;;;9.90;;
2724;SDS011;1370;52.596;13.112;2022-10-22T03:53:31;24.17;;;11.20;;
2724;SDS011;1370;52.596;13.112;2022-10-22T03:55:56;10.10;;;9.10;;
2724;SDS011;1370;52.596;13.112;2022-10-22T03:58:21;10.93;;;9.83;;
2724;SDS011;1370;52.596;13.112;2022-10-22T04:00:47;11.10;;;9.33;;
2724;SDS011;1370;52.596;13.112;2022-10-22T04:03:12;11.27;;;10.27;;
2724;SDS011;1370;52.596;13.112;2022-10-22T04:05:37;11.80;;;9.33;;
2724;SDS011;1370;52.596;13.112;2022-10-22T04:08:03;9.70;;;8.80;;
2724;SDS011;1370;52.596;13.112;2022-10-22T04:10:28;11.17;;;10.13;;
2724;SDS011;1370;52.596;13.112;2022-10-22T04:12:53;10.53;;;9.53;;
2724;SDS011;1370;52.596;13.112;2022-10-22T04:15:18;13.63;;;9.93;;
2724;SDS011;1370;52.596;13.112;2022-10-22T04:17:44;10.90;;;9.87;;
2724;SDS011;1370;52.596;13.112;2022-10-22T04:20:09;10.03;;;9.00;;
2724;SDS011;1370;52.596;13.112;2022-10-22T04:22:35;10.60;;;9.53;;
2724;SDS011;1370;52.596;13.112;2022-10-22T04:25:00;10.83;;;9.53;;
2724;SDS011;1370;52.596;13.112;2022-10-22T04:27:30;10.13;;;9.13;;
2724;SDS011;1370;52.596;13.112;2022-10-22T04:29:55;10.10;;;9.20;;
2724;SDS011;1370;52.596;13.112;2022-10-22T04:32:21;12.90;;;11.53;;
2724;SDS011;1370;52.596;13.112;2022-10-22T04:34:46;12.20;;;9.77;;
2724;SDS011;1370;52.596;13.112;2022-10-22T04:37:11;11.93;;;10.73;;
2724;SDS011;1370;52.596;13.112;2022-10-22T04:39:37;11.17;;;10.07;;
2724;SDS011;1370;52.596;13.112;2022-10-22T04:42:02;11.43;;;10.37;;
2724;SDS011;1370;52.596;13.112;2022-10-22T04:44:27;10.43;;;9.07;;
2724;SDS011;1370;52.596;13.112;2022-10-22T04:46:53;10.77;;;9.77;;
2724;SDS011;1370;52.596;13.112;2022-10-22T04:49:18;11.37;;;10.40;;
2724;SDS011;1370;52.596;13.112;2022-10-22T04:51:44;10.13;;;9.23;;
2724;SDS011;1370;52.596;13.112;2022-10-22T04:54:09;14.57;;;9.90;;
2724;SDS011;1370;52.596;13.112;2022-10-22T04:56:34;9.53;;;8.33;;
2724;SDS011;1370;52.596;13.112;2022-10-22T04:59:01;11.97;;;9.03;;
2724;SDS011;1370;52.596;13.112;2022-10-22T05:01:29;11.17;;;10.00;;
2724;SDS011;1370;52.596;13.112;2022-10-22T05:03:57;10.43;;;8.67;;
2724;SDS011;1370;52.596;13.112;2022-10-22T05:06:23;12.50;;;9.77;;
2724;SDS011;1370;52.596;13.112;2022-10-22T05:08:53;10.30;;;9.40;;
2724;SDS011;1370;52.596;13.112;2022-10-22T05:11:21;11.13;;;10.13;;
2724;SDS011;1370;52.596;13.112;2022-10-22T05:13:48;8.70;;;7.97;;
2724;SDS011;1370;52.596;13.112;2022-10-22T05:16:13;10.13;;;8.87;;
2724;SDS011;1370;52.596;13.112;2022-10-22T05:18:40;10.53;;;9.53;;
2724;SDS011;1370;52.596;13.112;2022-10-22T05:21:10;11.63;;;9.87;;
2724;SDS011;1370;52.596;13.112;2022-10-22T05:23:40;9.37;;;8.57;;
2724;SDS011;1370;52.596;13.112;2022-10-22T05:26:07;12.10;;;10.13;;
2724;SDS011;1370;52.596;13.112;2022-10-22T05:28:33;9.67;;;8.80;;
2724;SDS011;1370;52.596;13.112;2022-10-22T05:30:59;10.47;;;9.30;;
2724;SDS011;1370;52.596;13.112;2022-10-22T05:33:26;11.03;;;8.93;;
2724;SDS011;1370;52.596;13.112;2022-10-22T05:35:52;11.53;;;8.90;;
2724;SDS011;1370;52.596;13.112;2022-10-22T05:38:18;20.30;;;10.57;;
2724;SDS011;1370;52.596;13.112;2022-10-22T05:40:43;11.20;;;9.50;;
2724;SDS011;1370;52.596;13.112;2022-10-22T05:43:09;11.63;;;9.70;;
2724;SDS011;1370;52.596;13.112;2022-10-22T05:45:38;10.03;;;9.10;;
2724;SDS011;1370;52.596;13.112;2022-10-22T05:48:04;9.40;;;8.50;;
2724;SDS011;1370;52.596;13.112;2022-10-22T05:50:31;12.33;;;8.50;;
2724;SDS011;1370;52.596;13.112;2022-10-22T05:52:56;12.37;;;9.50;;
2724;SDS011;1370;52.596;13.112;2022-10-22T05:55:22;9.03;;;8.13;;
2724;SDS011;1370;52.596;13.112;2022-10-22T05:57:47;12.23;;;10.20;;
2724;SDS011;1370;52.596;13.112;2022-10-22T06:00:14;8.40;;;7.60;;
2724;SDS011;1370;52.596;13.112;2022-10-22T06:02:40;12.33;;;8.93;;
2724;SDS011;1370;52.596;13.112;2022-10-22T06:05:05;11.63;;;9.03;;
2724;SDS011;1370;52.596;13.112;2022-10-22T06:07:30;9.60;;;8.70;;
2724;SDS011;1370;52.596;13.112;2022-10-22T06:09:57;12.07;;;9.60;;
2724;SDS011;1370;52.596;13.112;2022-10-22T06:12:22;8.77;;;7.97;;
2724;SDS011;1370;52.596;13.112;2022-10-22T06:14:48;9.73;;;8.60;;
2724;SDS011;1370;52.596;13.112;2022-10-22T06:17:13;10.00;;;9.00;;
2724;SDS011;1370;52.596;13.112;2022-10-22T06:19:38;10.83;;;8.03;;
2724;SDS011;1370;52.596;13.112;2022-10-22T06:22:03;9.00;;;7.77;;
2724;SDS011;1370;52.596;13.112;2022-10-22T06:24:29;9.77;;;8.77;;
2724;SDS011;1370;52.596;13.112;2022-10-22T06:26:54;10.57;;;8.40;;
2724;SDS011;1370;52.596;13.112;2022-10-22T06:29:20;11.07;;;9.97;;
2724;SDS011;1370;52.596;13.112;2022-10-22T06:31:45;9.33;;;8.40;;
2724;SDS011;1370;52.596;13.112;2022-10-22T06:34:11;8.30;;;7.60;;
2724;SDS011;1370;52.596;13.112;2022-10-22T06:36:37;9.17;;;7.70;;
2724;SDS011;1370;52.596;13.112;2022-10-22T06:39:04;11.43;;;9.87;;
2724;SDS011;1370;52.596;13.112;2022-10-22T06:41:30;11.90;;;8.93;;
2724;SDS011;1370;52.596;13.112;2022-10-22T06:43:56;8.70;;;7.83;;
2724;SDS011;1370;52.596;13.112;2022-10-22T06:46:21;9.63;;;8.60;;
2724;SDS011;1370;52.596;13.112;2022-10-22T06:48:48;11.30;;;9.73;;
2724;SDS011;1370;52.596;13.112;2022-10-22T06:51:14;10.00;;;9.10;;
2724;SDS011;1370;52.596;13.112;2022-10-22T06:53:39;9.37;;;8.43;;
2724;SDS011;1370;52.596;13.112;2022-10-22T06:56:09;10.13;;;9.13;;
2724;SDS011;1370;52.596;13.112;2022-10-22T06:58:36;9.77;;;8.37;;
2724;SDS011;1370;52.596;13.112;2022-10-22T07:01:02;11.23;;;9.03;;
2724;SDS011;1370;52.596;13.112;2022-10-22T07:03:29;8.67;;;7.90;;
2724;SDS011;1370;52.596;13.112;2022-10-22T07:05:57;9.43;;;8.63;;
2724;SDS011;1370;52.596;13.112;2022-10-22T07:08:23;9.60;;;8.67;;
2724;SDS011;1370;52.596;13.112;2022-10-22T07:10:49;11.43;;;9.93;;
2724;SDS011;1370;52.596;13.112;2022-10-22T07:13:14;12.27;;;10.27;;
2724;SDS011;1370;52.596;13.112;2022-10-22T07:15:39;11.37;;;10.27;;
2724;SDS011;1370;52.596;13.112;2022-10-22T07:18:05;15.23;;;12.70;;
2724;SDS011;1370;52.596;13.112;2022-10-22T07:20:30;12.77;;;11.47;;
2724;SDS011;1370;52.596;13.112;2022-10-22T07:22:55;14.90;;;11.77;;
2724;SDS011;1370;52.596;13.112;2022-10-22T07:25:21;12.73;;;10.53;;
2724;SDS011;1370;52.596;13.112;2022-10-22T07:27:46;15.80;;;12.63;;
2724;SDS011;1370;52.596;13.112;2022-10-22T07:30:11;16.70;;;15.00;;
2724;SDS011;1370;52.596;13.112;2022-10-22T07:32:37;18.17;;;13.13;;
2724;SDS011;1370;52.596;13.112;2022-10-22T07:35:02;20.60;;;13.73;;
2724;SDS011;1370;52.596;13.112;2022-10-22T07:37:28;14.83;;;13.33;;
2724;SDS011;1370;52.596;13.112;2022-10-22T07:39:53;15.50;;;13.40;;
2724;SDS011;1370;52.596;13.112;2022-10-22T07:42:19;14.53;;;13.10;;
2724;SDS011;1370;52.596;13.112;2022-10-22T07:44:44;15.63;;;12.23;;
2724;SDS011;1370;52.596;13.112;2022-10-22T07:47:09;17.07;;;14.40;;
2724;SDS011;1370;52.596;13.112;2022-10-22T07:49:34;14.07;;;11.97;;
2724;SDS011;1370;52.596;13.112;2022-10-22T07:52:00;17.20;;;13.30;;
2724;SDS011;1370;52.596;13.112;2022-10-22T07:54:25;17.00;;;14.80;;
2724;SDS011;1370;52.596;13.112;2022-10-22T07:56:50;19.33;;;14.93;;
2724;SDS011;1370;52.596;13.112;2022-10-22T07:59:16;22.20;;;14.37;;
2724;SDS011;1370;52.596;13.112;2022-10-22T08:01:41;19.90;;;14.43;;
2724;SDS011;1370;52.596;13.112;2022-10-22T08:04:07;16.60;;;13.03;;
2724;SDS011;1370;52.596;13.112;2022-10-22T08:06:33;16.67;;;13.10;;
2724;SDS011;1370;52.596;13.112;2022-10-22T08:08:59;17.70;;;14.50;;
2724;SDS011;1370;52.596;13.112;2022-10-22T08:11:25;17.33;;;12.00;;
2724;SDS011;1370;52.596;13.112;2022-10-22T08:13:51;16.63;;;12.97;;
2724;SDS011;1370;52.596;13.112;2022-10-22T08:16:16;17.07;;;14.03;;
2724;SDS011;1370;52.596;13.112;2022-10-22T08:18:41;15.13;;;13.30;;
2724;SDS011;1370;52.596;13.112;2022-10-22T08:21:07;14.97;;;13.37;;
2724;SDS011;1370;52.596;13.112;2022-10-22T08:23:32;16.40;;;14.03;;
2724;SDS011;1370;52.596;13.112;2022-10-22T08:25:58;18.70;;;13.97;;
2724;SDS011;1370;52.596;13.112;2022-10-22T08:28:23;15.03;;;13.43;;
2724;SDS011;1370;52.596;13.112;2022-10-22T08:30:49;17.30;;;14.60;;
2724;SDS011;1370;52.596;13.112;2022-10-22T08:33:14;17.40;;;14.00;;
2724;SDS011;1370;52.596;13.112;2022-10-22T08:35:39;18.17;;;14.70;;
2724;SDS011;1370;52.596;13.112;2022-10-22T08:38:04;19.53;;;15.87;;
2724;SDS011;1370;52.596;13.112;2022-10-22T08:40:34;16.60;;;13.83;;
2724;SDS011;1370;52.596;13.112;2022-10-22T08:51:15;19.10;;;13.53;;
2724;SDS011;1370;52.596;13.112;2022-10-22T08:53:52;17.17;;;15.27;;
2724;SDS011;1370;52.596;13.112;2022-10-22T08:56:31;22.50;;;13.60;;
2724;SDS011;1370;52.596;13.112;2022-10-22T08:59:05;18.47;;;15.30;;
2724;SDS011;1370;52.596;13.112;2022-10-22T09:01:40;16.50;;;14.77;;
2724;SDS011;1370;52.596;13.112;2022-10-22T09:04:10;17.80;;;15.13;;
2724;SDS011;1370;52.596;13.112;2022-10-22T09:06:40;19.13;;;14.30;;
2724;SDS011;1370;52.596;13.112;2022-10-22T09:09:10;15.27;;;13.70;;
2724;SDS011;1370;52.596;13.112;2022-10-22T09:11:38;13.37;;;12.10;;
2724;SDS011;1370;52.596;13.112;2022-10-22T09:14:04;17.17;;;14.63;;
2724;SDS011;1370;52.596;13.112;2022-10-22T09:19:25;18.33;;;15.13;;
2724;SDS011;1370;52.596;13.112;2022-10-22T09:24:47;19.70;;;14.40;;
2724;SDS011;1370;52.596;13.112;2022-10-22T09:27:17;18.33;;;13.30;;
2724;SDS011;1370;52.596;13.112;2022-10-22T09:29:44;28.03;;;14.70;;
2724;SDS011;1370;52.596;13.112;2022-10-22T09:32:10;22.90;;;14.47;;
2724;SDS011;1370;52.596;13.112;2022-10-22T09:34:36;14.80;;;12.80;;
2724;SDS011;1370;52.596;13.112;2022-10-22T09:37:03;20.93;;;14.20;;
2724;SDS011;1370;52.596;13.112;2022-10-22T09:42:00;17.17;;;14.83;;
2724;SDS011;1370;52.596;13.112;2022-10-22T09:44:26;17.47;;;14.53;;
2724;SDS011;1370;52.596;13.112;2022-10-22T09:46:51;15.93;;;13.37;;
2724;SDS011;1370;52.596;13.112;2022-10-22T09:49:17;14.77;;;13.27;;
2724;SDS011;1370;52.596;13.112;2022-10-22T09:51:52;18.17;;;13.30;;
2724;SDS011;1370;52.596;13.112;2022-10-22T09:54:18;16.40;;;13.27;;
2724;SDS011;1370;52.596;13.112;2022-10-22T09:57:14;20.77;;;13.87;;
2724;SDS011;1370;52.596;13.112;2022-10-22T09:59:42;16.83;;;13.43;;
2724;SDS011;1370;52.596;13.112;2022-10-22T10:04:34;16.90;;;13.60;;
2724;SDS011;1370;52.596;13.112;2022-10-22T10:07:00;17.23;;;13.33;;
2724;SDS011;1370;52.596;13.112;2022-10-22T10:09:25;14.00;;;12.00;;
2724;SDS011;1370;52.596;13.112;2022-10-22T10:12:06;14.30;;;12.83;;
2724;SDS011;1370;52.596;13.112;2022-10-22T10:14:59;15.77;;;13.07;;
2724;SDS011;1370;52.596;13.112;2022-10-22T10:17:29;15.37;;;12.67;;
2724;SDS011;1370;52.596;13.112;2022-10-22T10:25:41;13.33;;;12.03;;
2724;SDS011;1370;52.596;13.112;2022-10-22T10:31:05;17.47;;;12.20;;
2724;SDS011;1370;52.596;13.112;2022-10-22T10:33:45;14.10;;;11.67;;
2724;SDS011;1370;52.596;13.112;2022-10-22T10:36:50;13.47;;;12.07;;
2724;SDS011;1370;52.596;13.112;2022-10-22T10:42:32;16.37;;;11.33;;
2724;SDS011;1370;52.596;13.112;2022-10-22T10:45:05;14.40;;;11.70;;
2724;SDS011;1370;52.596;13.112;2022-10-22T10:47:45;17.10;;;11.73;;
2724;SDS011;1370;52.596;13.112;2022-10-22T10:56:02;12.20;;;10.23;;
2724;SDS011;1370;52.596;13.112;2022-10-22T11:01:20;16.33;;;13.07;;
2724;SDS011;1370;52.596;13.112;2022-10-22T11:06:38;16.00;;;11.93;;
2724;SDS011;1370;52.596;13.112;2022-10-22T11:09:20;16.20;;;12.47;;
2724;SDS011;1370;52.596;13.112;2022-10-22T11:11:49;19.20;;;12.97;;
2724;SDS011;1370;52.596;13.112;2022-10-22T11:16:45;14.13;;;12.60;;
2724;SDS011;1370;52.596;13.112;2022-10-22T11:21:52;17.67;;;12.30;;
2724;SDS011;1370;52.596;13.112;2022-10-22T11:24:23;22.03;;;12.60;;
2724;SDS011;1370;52.596;13.112;2022-10-22T11:26:52;21.90;;;13.40;;
2724;SDS011;1370;52.596;13.112;2022-10-22T11:29:22;16.77;;;14.00;;
2724;SDS011;1370;52.596;13.112;2022-10-22T11:31:50;12.70;;;10.97;;
2724;SDS011;1370;52.596;13.112;2022-10-22T11:34:20;15.80;;;12.00;;
2724;SDS011;1370;52.596;13.112;2022-10-22T11:36:49;11.90;;;10.20;;
2724;SDS011;1370;52.596;13.112;2022-10-22T11:39:35;12.80;;;10.13;;
2724;SDS011;1370;52.596;13.112;2022-10-22T11:42:04;11.40;;;9.20;;
2724;SDS011;1370;52.596;13.112;2022-10-22T11:44:30;11.10;;;10.00;;
2724;SDS011;1370;52.596;13.112;2022-10-22T11:46:58;15.53;;;8.43;;
2724;SDS011;1370;52.596;13.112;2022-10-22T11:49:54;13.93;;;9.40;;
2724;SDS011;1370;52.596;13.112;2022-10-22T11:52:51;15.13;;;8.90;;
2724;SDS011;1370;52.596;13.112;2022-10-22T11:58:27;14.43;;;9.90;;
2724;SDS011;1370;52.596;13.112;2022-10-22T12:00:52;10.07;;;7.70;;
2724;SDS011;1370;52.596;13.112;2022-10-22T12:06:05;7.63;;;6.90;;
2724;SDS011;1370;52.596;13.112;2022-10-22T12:08:44;8.63;;;7.20;;
2724;SDS011;1370;52.596;13.112;2022-10-22T12:11:14;11.00;;;7.17;;
2724;SDS011;1370;52.596;13.112;2022-10-22T12:13:52;15.40;;;7.93;;
2724;SDS011;1370;52.596;13.112;2022-10-22T12:16:23;8.77;;;6.97;;
2724;SDS011;1370;52.596;13.112;2022-10-22T12:18:52;9.53;;;6.87;;
2724;SDS011;1370;52.596;13.112;2022-10-22T12:21:21;11.57;;;6.50;;
2724;SDS011;1370;52.596;13.112;2022-10-22T12:23:46;8.00;;;5.90;;
2724;SDS011;1370;52.596;13.112;2022-10-22T12:26:25;9.77;;;5.37;;
2724;SDS011;1370;52.596;13.112;2022-10-22T12:28:56;5.93;;;5.40;;
2724;SDS011;1370;52.596;13.112;2022-10-22T12:31:37;5.20;;;4.77;;
2724;SDS011;1370;52.596;13.112;2022-10-22T12:34:03;5.07;;;4.67;;
2724;SDS011;1370;52.596;13.112;2022-10-22T12:36:29;8.97;;;5.07;;
2724;SDS011;1370;52.596;13.112;2022-10-22T12:38:58;5.10;;;4.50;;
2724;SDS011;1370;52.596;13.112;2022-10-22T12:41:31;7.83;;;4.67;;
2724;SDS011;1370;52.596;13.112;2022-10-22T12:44:02;5.03;;;4.10;;
2724;SDS011;1370;52.596;13.112;2022-10-22T12:46:29;4.73;;;4.30;;
2724;SDS011;1370;52.596;13.112;2022-10-22T12:48:57;8.10;;;4.17;;
2724;SDS011;1370;52.596;13.112;2022-10-22T12:51:24;7.23;;;4.60;;
2724;SDS011;1370;52.596;13.112;2022-10-22T12:53:50;11.33;;;4.10;;
2724;SDS011;1370;52.596;13.112;2022-10-22T12:56:27;5.13;;;3.83;;
2724;SDS011;1370;52.596;13.112;2022-10-22T13:01:41;8.77;;;4.03;;
2724;SDS011;1370;52.596;13.112;2022-10-22T13:06:45;5.07;;;3.30;;
2724;SDS011;1370;52.596;13.112;2022-10-22T13:09:14;4.43;;;4.03;;
2724;SDS011;1370;52.596;13.112;2022-10-22T13:11:55;3.20;;;3.00;;
2724;SDS011;1370;52.596;13.112;2022-10-22T13:14:29;8.00;;;4.13;;
2724;SDS011;1370;52.596;13.112;2022-10-22T13:17:06;4.07;;;3.67;;
2724;SDS011;1370;52.596;13.112;2022-10-22T13:20:16;4.20;;;3.70;;
2724;SDS011;1370;52.596;13.112;2022-10-22T13:24:53;4.00;;;3.60;;
2724;SDS011;1370;52.596;13.112;2022-10-22T13:27:20;4.63;;;4.23;;
2724;SDS011;1370;52.596;13.112;2022-10-22T13:29:47;3.70;;;3.10;;
2724;SDS011;1370;52.596;13.112;2022-10-22T13:32:24;5.53;;;3.83;;
2724;SDS011;1370;52.596;13.112;2022-10-22T13:34:52;7.10;;;4.07;;
2724;SDS011;1370;52.596;13.112;2022-10-22T13:37:17;3.70;;;3.40;;
2724;SDS011;1370;52.596;13.112;2022-10-22T13:39:43;10.53;;;3.40;;
2724;SDS011;1370;52.596;13.112;2022-10-22T13:42:12;9.20;;;3.80;;
2724;SDS011;1370;52.596;13.112;2022-10-22T13:44:37;11.80;;;5.07;;
2724;SDS011;1370;52.596;13.112;2022-10-22T13:47:03;3.50;;;3.20;;
2724;SDS011;1370;52.596;13.112;2022-10-22T13:49:31;9.10;;;4.17;;
2724;SDS011;1370;52.596;13.112;2022-10-22T13:51:57;4.10;;;3.00;;
2724;SDS011;1370;52.596;13.112;2022-10-22T13:54:24;5.03;;;2.73;;
2724;SDS011;1370;52.596;13.112;2022-10-22T13:56:49;3.63;;;3.33;;
2724;SDS011;1370;52.596;13.112;2022-10-22T13:59:15;4.00;;;3.70;;
2724;SDS011;1370;52.596;13.112;2022-10-22T14:01:40;5.30;;;3.40;;
2724;SDS011;1370;52.596;13.112;2022-10-22T14:04:06;4.67;;;3.90;;
2724;SDS011;1370;52.596;13.112;2022-10-22T14:06:32;4.27;;;2.50;;
2724;SDS011;1370;52.596;13.112;2022-10-22T14:08:59;5.43;;;3.70;;
2724;SDS011;1370;52.596;13.112;2022-10-22T14:11:26;7.00;;;3.00;;
2724;SDS011;1370;52.596;13.112;2022-10-22T14:13:52;3.93;;;3.33;;
2724;SDS011;1370;52.596;13.112;2022-10-22T14:16:19;6.50;;;4.70;;
2724;SDS011;1370;52.596;13.112;2022-10-22T14:18:46;4.40;;;3.10;;
2724;SDS011;1370;52.596;13.112;2022-10-22T14:21:11;5.40;;;3.47;;
2724;SDS011;1370;52.596;13.112;2022-10-22T14:23:38;5.23;;;2.77;;
2724;SDS011;1370;52.596;13.112;2022-10-22T14:26:03;6.03;;;3.37;;
2724;SDS011;1370;52.596;13.112;2022-10-22T14:28:31;3.30;;;2.53;;
2724;SDS011;1370;52.596;13.112;2022-10-22T14:30:56;3.93;;;2.70;;
2724;SDS011;1370;52.596;13.112;2022-10-22T14:33:23;4.00;;;3.60;;
2724;SDS011;1370;52.596;13.112;2022-10-22T14:35:52;5.07;;;2.90;;
2724;SDS011;1370;52.596;13.112;2022-10-22T14:38:18;4.50;;;2.80;;
2724;SDS011;1370;52.596;13.112;2022-10-22T14:40:43;8.73;;;3.43;;
2724;SDS011;1370;52.596;13.112;2022-10-22T14:43:10;7.60;;;3.53;;
2724;SDS011;1370;52.596;13.112;2022-10-22T14:45:56;11.03;;;2.97;;
2724;SDS011;1370;52.596;13.112;2022-10-22T14:48:22;7.33;;;3.30;;
2724;SDS011;1370;52.596;13.112;2022-10-22T14:50:48;7.20;;;3.00;;
2724;SDS011;1370;52.596;13.112;2022-10-22T14:53:13;3.90;;;3.33;;
2724;SDS011;1370;52.596;13.112;2022-10-22T14:55:40;5.33;;;3.00;;
2724;SDS011;1370;52.596;13.112;2022-10-22T14:58:08;4.43;;;2.87;;
2724;SDS011;1370;52.596;13.112;2022-10-22T15:00:33;5.73;;;4.20;;
2724;SDS011;1370;52.596;13.112;2022-10-22T15:03:00;7.10;;;3.20;;
2724;SDS011;1370;52.596;13.112;2022-10-22T15:05:25;3.93;;;2.97;;
2724;SDS011;1370;52.596;13.112;2022-10-22T15:07:51;9.20;;;2.90;;
2724;SDS011;1370;52.596;13.112;2022-10-22T15:10:16;4.03;;;3.73;;
2724;SDS011;1370;52.596;13.112;2022-10-22T15:12:41;8.33;;;3.27;;
2724;SDS011;1370;52.596;13.112;2022-10-22T15:15:07;5.13;;;3.37;;
2724;SDS011;1370;52.596;13.112;2022-10-22T15:17:32;7.07;;;2.83;;
2724;SDS011;1370;52.596;13.112;2022-10-22T15:19:57;6.70;;;3.00;;
2724;SDS011;1370;52.596;13.112;2022-10-22T15:22:28;3.50;;;3.07;;
2724;SDS011;1370;52.596;13.112;2022-10-22T15:24:55;6.20;;;3.27;;
2724;SDS011;1370;52.596;13.112;2022-10-22T15:27:21;7.93;;;3.27;;
2724;SDS011;1370;52.596;13.112;2022-10-22T15:29:47;5.30;;;3.60;;
2724;SDS011;1370;52.596;13.112;2022-10-22T15:32:12;6.37;;;3.50;;
2724;SDS011;1370;52.596;13.112;2022-10-22T15:34:38;4.43;;;2.93;;
2724;SDS011;1370;52.596;13.112;2022-10-22T15:37:04;6.27;;;2.97;;
2724;SDS011;1370;52.596;13.112;2022-10-22T15:39:32;10.40;;;3.37;;
2724;SDS011;1370;52.596;13.112;2022-10-22T15:41:57;3.83;;;3.27;;
2724;SDS011;1370;52.596;13.112;2022-10-22T15:44:27;11.23;;;3.67;;
2724;SDS011;1370;52.596;13.112;2022-10-22T15:46:53;5.30;;;3.20;;
2724;SDS011;1370;52.596;13.112;2022-10-22T15:49:19;8.57;;;2.97;;
2724;SDS011;1370;52.596;13.112;2022-10-22T15:51:45;15.40;;;4.23;;
2724;SDS011;1370;52.596;13.112;2022-10-22T15:54:15;5.37;;;2.97;;
2724;SDS011;1370;52.596;13.112;2022-10-22T15:56:41;5.27;;;3.23;;
2724;SDS011;1370;52.596;13.112;2022-10-22T15:59:07;6.50;;;3.30;;
2724;SDS011;1370;52.596;13.112;2022-10-22T16:01:33;3.53;;;3.27;;
2724;SDS011;1370;52.596;13.112;2022-10-22T16:03:59;8.03;;;3.80;;
2724;SDS011;1370;52.596;13.112;2022-10-22T16:06:37;6.00;;;3.20;;
2724;SDS011;1370;52.596;13.112;2022-10-22T16:09:06;6.23;;;3.03;;
2724;SDS011;1370;52.596;13.112;2022-10-22T16:11:33;4.93;;;4.50;;